createdAt,value
2022-12-19T00:01:08.898Z,98999.06
2022-12-19T00:03:35.896Z,98973.34
2022-12-19T00:06:05.978Z,98945.94
2022-12-19T00:08:32.770Z,98980.19
2022-12-19T00:11:00.828Z,98999.88
2022-12-19T00:13:27.489Z,98975.88
2022-12-19T00:16:00.603Z,99007.56
2022-12-19T00:18:27.004Z,99002.38
2022-12-19T00:21:01.379Z,98983.56
2022-12-19T00:23:28.544Z,98980.13
2022-12-19T00:25:55.155Z,98936.41
2022-12-19T00:28:21.824Z,98964.69
2022-12-19T00:30:48.587Z,98991.22
2022-12-19T00:33:14.971Z,98990.31
2022-12-19T00:35:41.542Z,98941.47
2022-12-19T00:38:07.966Z,98906.38
2022-12-19T00:40:34.364Z,98920.09
2022-12-19T00:43:00.870Z,98875.56
2022-12-19T00:45:27.822Z,98857.56
2022-12-19T00:47:55.566Z,98789.94
2022-12-19T00:50:21.919Z,98747.97
2022-12-19T00:52:48.303Z,98706.81
2022-12-19T00:55:19.417Z,98685.44
2022-12-19T00:57:46.441Z,98670.00
2022-12-19T01:00:13.450Z,98640.88
2022-12-19T01:02:39.923Z,98629.78
2022-12-19T01:05:06.716Z,98625.44
2022-12-19T01:07:33.068Z,98642.50
2022-12-19T01:09:59.497Z,98666.44
2022-12-19T01:12:44.777Z,98667.22
2022-12-19T01:15:11.532Z,98655.25
2022-12-19T01:17:43.596Z,98669.81
2022-12-19T01:20:11.446Z,98654.38
2022-12-19T01:22:37.798Z,98605.53
2022-12-19T01:25:05.266Z,98615.00
2022-12-19T01:27:31.930Z,98604.69
2022-12-19T01:29:58.300Z,98566.16
2022-12-19T01:32:24.719Z,98543.84
2022-12-19T01:34:51.065Z,98513.88
2022-12-19T01:37:17.733Z,98479.56
2022-12-19T01:39:44.226Z,98422.97
2022-12-19T01:42:23.600Z,98360.38
2022-12-19T01:45:12.157Z,98317.41
2022-12-19T01:47:56.745Z,98259.91
2022-12-19T01:50:29.644Z,98124.47
2022-12-19T01:52:56.104Z,97997.56
2022-12-19T01:55:22.482Z,97942.72
2022-12-19T01:57:48.819Z,97859.50
2022-12-19T02:00:15.429Z,97759.16
2022-12-19T02:02:46.911Z,97681.06
2022-12-19T02:05:13.384Z,97616.75
2022-12-19T02:07:39.915Z,97540.38
2022-12-19T02:10:06.578Z,97442.66
2022-12-19T02:12:35.042Z,97343.25
2022-12-19T02:15:03.042Z,97269.41
2022-12-19T02:17:53.007Z,97151.19
2022-12-19T02:20:50.699Z,97041.34
2022-12-19T02:23:36.047Z,96937.66
2022-12-19T02:26:43.997Z,96857.03
2022-12-19T02:29:32.128Z,96771.13
2022-12-19T02:32:03.197Z,96691.22
2022-12-19T02:34:46.401Z,96611.25
2022-12-19T02:37:46.806Z,96502.25
2022-12-19T02:40:31.542Z,96394.94
2022-12-19T02:43:00.092Z,96298.19
2022-12-19T02:45:28.820Z,96172.09
2022-12-19T02:47:56.083Z,96069.22
2022-12-19T02:50:22.554Z,95969.69
2022-12-19T02:52:49.174Z,95894.19
2022-12-19T02:55:19.008Z,95774.25
2022-12-19T02:58:14.456Z,95619.97
2022-12-19T03:00:59.924Z,95497.97
2022-12-19T03:03:38.047Z,95387.28
2022-12-19T03:06:11.649Z,95298.00
2022-12-19T03:08:49.311Z,95202.75
2022-12-19T03:11:15.697Z,95115.06
2022-12-19T03:13:44.847Z,95031.16
2022-12-19T03:16:11.517Z,94945.34
2022-12-19T03:18:37.962Z,94856.06
2022-12-19T03:21:20.354Z,94747.34
2022-12-19T03:23:47.133Z,94676.06
2022-12-19T03:26:18.656Z,94601.50
2022-12-19T03:28:50.658Z,94535.44
2022-12-19T03:31:18.317Z,94478.75
2022-12-19T03:33:45.291Z,94444.41
2022-12-19T03:36:14.212Z,94418.81
2022-12-19T03:38:40.649Z,94372.41
2022-12-19T03:41:07.317Z,94356.97
2022-12-19T03:43:33.695Z,94320.69
2022-12-19T03:46:01.756Z,94290.13
2022-12-19T03:48:36.085Z,94266.03
2022-12-19T03:51:22.489Z,94238.41
2022-12-19T03:54:02.124Z,94198.88
2022-12-19T03:56:51.490Z,94168.97
2022-12-19T03:59:51.049Z,94109.84
2022-12-19T04:02:18.293Z,94076.28
2022-12-19T04:04:46.611Z,94041.09
2022-12-19T04:07:13.380Z,93999.66
2022-12-19T04:09:39.880Z,93973.94
2022-12-19T04:12:08.666Z,93963.38
2022-12-19T04:14:36.589Z,93927.09
2022-12-19T04:17:39.706Z,93903.00
2022-12-19T04:20:08.494Z,93867.00
2022-12-19T04:22:36.279Z,93839.34
2022-12-19T04:25:05.500Z,93806.06
2022-12-19T04:27:32.753Z,93785.47
2022-12-19T04:29:59.211Z,93766.56
2022-12-19T04:32:25.687Z,93751.13
2022-12-19T04:34:52.112Z,93726.19
2022-12-19T04:37:18.483Z,93712.38
2022-12-19T04:39:44.884Z,93705.34
2022-12-19T04:42:11.451Z,93693.13
2022-12-19T04:44:37.826Z,93686.38
2022-12-19T04:47:04.205Z,93701.00
2022-12-19T04:49:30.601Z,93700.19
2022-12-19T04:51:56.967Z,93693.44
2022-12-19T04:54:23.313Z,93720.75
2022-12-19T04:56:49.700Z,93723.34
2022-12-19T04:59:16.086Z,93699.91
2022-12-19T05:01:42.491Z,93681.72
2022-12-19T05:04:08.913Z,93690.25
2022-12-19T05:06:35.286Z,93667.75
2022-12-19T05:09:01.632Z,93662.59
2022-12-19T05:11:27.999Z,93656.69
2022-12-19T05:13:54.403Z,93654.09
2022-12-19T05:16:20.791Z,93641.09
2022-12-19T05:18:47.242Z,93626.97
2022-12-19T05:21:13.709Z,93630.19
2022-12-19T05:23:40.166Z,93621.50
2022-12-19T05:26:06.695Z,93610.25
2022-12-19T05:28:33.479Z,93552.72
2022-12-19T05:31:19.945Z,93527.00
2022-12-19T05:33:46.719Z,93502.88
2022-12-19T05:36:14.037Z,93432.47
2022-12-19T05:38:40.528Z,93399.69
2022-12-19T05:41:11.440Z,93360.13
2022-12-19T05:43:37.835Z,93326.03
2022-12-19T05:46:04.941Z,93277.81
2022-12-19T05:48:31.424Z,93118.31
2022-12-19T05:50:58.382Z,93036.00
2022-12-19T05:53:26.233Z,92976.84
2022-12-19T05:55:52.769Z,92932.75
2022-12-19T05:58:19.129Z,92909.44
2022-12-19T06:00:45.472Z,92873.25
2022-12-19T06:03:11.950Z,92833.69
2022-12-19T06:05:38.853Z,92766.56
2022-12-19T06:08:05.821Z,92728.41
2022-12-19T06:10:32.313Z,92677.41
2022-12-19T06:12:58.647Z,92635.09
2022-12-19T06:15:25.029Z,92557.53
2022-12-19T06:17:54.147Z,92541.47
2022-12-19T06:20:20.490Z,92533.94
2022-12-19T06:22:46.884Z,92516.09
2022-12-19T06:25:14.378Z,92499.69
2022-12-19T06:27:40.744Z,92489.03
2022-12-19T06:30:07.506Z,92474.00
2022-12-19T06:32:38.178Z,92445.53
2022-12-19T06:35:05.458Z,92435.59
2022-12-19T06:37:31.881Z,92434.00
2022-12-19T06:39:58.251Z,92415.00
2022-12-19T06:42:24.667Z,92371.53
2022-12-19T06:44:55.931Z,92356.69
2022-12-19T06:47:23.590Z,92303.44
2022-12-19T06:49:50.193Z,92302.81
2022-12-19T06:52:16.727Z,92287.22
2022-12-19T06:54:43.108Z,92282.44
2022-12-19T06:57:09.533Z,92236.94
2022-12-19T06:59:35.891Z,92228.25
2022-12-19T07:02:23.047Z,92219.94
2022-12-19T07:04:52.424Z,92220.69
2022-12-19T07:07:19.340Z,92206.44
2022-12-19T07:09:45.736Z,92198.13
2022-12-19T07:12:12.120Z,92189.78
2022-12-19T07:14:38.465Z,92139.00
2022-12-19T07:17:04.908Z,92116.22
2022-12-19T07:19:31.271Z,92097.03
2022-12-19T07:21:57.641Z,92079.00
2022-12-19T07:24:23.981Z,92050.91
2022-12-19T07:26:50.405Z,92027.75
2022-12-19T07:29:16.749Z,92018.44
2022-12-19T07:31:43.136Z,92001.41
2022-12-19T07:34:10.016Z,91989.50
2022-12-19T07:36:36.434Z,91986.72
2022-12-19T07:39:02.934Z,91968.91
2022-12-19T07:41:29.894Z,91898.41
2022-12-19T07:43:56.229Z,91882.56
2022-12-19T07:46:22.611Z,91844.13
2022-12-19T07:48:49.040Z,91839.59
2022-12-19T07:51:15.415Z,91817.63
2022-12-19T07:53:41.784Z,91815.81
2022-12-19T07:56:08.343Z,91784.34
2022-12-19T07:58:34.987Z,91716.94
2022-12-19T08:01:01.748Z,91662.66
2022-12-19T08:03:31.083Z,91627.78
2022-12-19T08:06:01.294Z,91624.63
2022-12-19T08:08:28.256Z,91591.50
2022-12-19T08:10:54.714Z,91568.69
2022-12-19T08:13:21.087Z,91559.59
2022-12-19T08:15:47.499Z,91544.34
2022-12-19T08:18:13.890Z,91462.84
2022-12-19T08:20:45.299Z,91459.84
2022-12-19T08:23:11.659Z,91419.94
2022-12-19T08:25:40.688Z,91264.78
2022-12-19T08:28:07.062Z,91175.25
2022-12-19T08:30:33.647Z,90976.72
2022-12-19T08:33:00.052Z,90694.81
2022-12-19T08:35:26.453Z,90607.31
2022-12-19T08:37:52.812Z,90528.25
2022-12-19T08:40:19.423Z,90515.25
2022-12-19T08:42:45.768Z,90498.00
2022-12-19T08:45:12.726Z,90538.44
2022-12-19T08:47:39.111Z,90407.84
2022-12-19T08:50:05.840Z,90382.03
2022-12-19T08:52:32.211Z,90359.31
2022-12-19T08:54:58.627Z,90336.38
2022-12-19T08:57:25.006Z,90327.09
2022-12-19T08:59:51.358Z,90310.88
2022-12-19T09:02:19.115Z,90275.78
2022-12-19T09:05:58.581Z,90286.13
2022-12-19T09:07:32.032Z,90277.34
2022-12-19T09:10:04.448Z,90297.72
2022-12-19T09:12:30.865Z,90322.75
2022-12-19T09:14:57.249Z,90326.13
2022-12-19T09:17:23.655Z,90321.75
2022-12-19T09:19:50.005Z,90316.09
2022-12-19T09:22:16.728Z,90303.19
2022-12-19T09:24:43.144Z,90306.31
2022-12-19T09:27:09.501Z,90304.75
2022-12-19T09:29:36.031Z,90350.94
2022-12-19T09:32:02.595Z,90330.56
2022-12-19T09:34:36.839Z,90344.53
2022-12-19T09:37:06.681Z,90329.59
2022-12-19T09:39:34.133Z,90334.75
2022-12-19T09:42:21.725Z,90339.41
2022-12-19T09:44:50.546Z,90344.56
2022-12-19T09:47:18.530Z,90365.22
2022-12-19T09:49:46.022Z,90393.13
2022-12-19T09:52:17.592Z,90411.94
2022-12-19T09:55:03.226Z,90423.56
2022-12-19T09:57:55.706Z,90433.91
2022-12-19T10:00:22.259Z,90441.41
2022-12-19T10:03:25.370Z,90416.13
2022-12-19T10:06:40.705Z,90413.84
2022-12-19T10:09:14.454Z,90388.81
2022-12-19T10:12:42.162Z,90402.00
2022-12-19T10:14:37.317Z,90390.88
2022-12-19T10:17:25.089Z,90364.31
2022-12-19T10:20:10.473Z,90364.34
2022-12-19T10:22:40.040Z,90383.97
2022-12-19T10:25:31.190Z,90371.59
2022-12-19T10:28:16.059Z,90324.84
2022-12-19T10:30:45.136Z,90345.78
2022-12-19T10:33:29.269Z,90360.00
2022-12-19T10:36:02.021Z,90350.72
2022-12-19T10:38:35.866Z,90361.06
2022-12-19T10:41:08.286Z,90369.59
2022-12-19T10:43:44.796Z,90410.91
2022-12-19T10:46:15.757Z,90403.22
2022-12-19T10:48:42.169Z,90420.28
2022-12-19T10:51:22.135Z,90416.91
2022-12-19T10:53:56.939Z,90433.72
2022-12-19T10:56:26.084Z,90445.59
2022-12-19T10:58:58.867Z,90469.91
2022-12-19T11:01:38.132Z,90464.25
2022-12-19T11:04:29.838Z,90493.44
2022-12-19T11:07:02.280Z,90470.47
2022-12-19T11:09:30.557Z,90473.56
2022-12-19T11:16:46.548Z,90499.41
2022-12-19T11:16:51.025Z,90502.50
2022-12-19T11:26:19.233Z,90546.72
2022-12-19T11:29:26.151Z,90505.41
2022-12-19T11:30:06.169Z,90505.66
2022-12-19T11:30:36.676Z,90512.38
2022-12-19T11:30:44.325Z,90488.16
2022-12-19T11:34:23.598Z,90493.84
2022-12-19T11:37:13.868Z,90519.19
2022-12-19T11:39:50.677Z,90535.75
2022-12-19T11:42:23.213Z,90542.25
2022-12-19T11:45:06.794Z,90529.59
2022-12-19T11:47:48.337Z,90537.91
2022-12-19T11:50:28.969Z,90577.47
2022-12-19T11:53:18.806Z,90612.94
2022-12-19T11:56:05.460Z,90601.34
2022-12-19T11:58:42.461Z,90615.06
2022-12-19T12:01:14.292Z,90636.84
2022-12-19T12:04:02.417Z,90657.06
2022-12-19T12:06:33.277Z,90691.28
2022-12-19T12:12:53.429Z,90741.03
2022-12-19T12:22:51.248Z,90779.88
2022-12-19T12:27:34.804Z,90848.78
2022-12-19T12:31:15.836Z,90965.06
2022-12-19T12:31:28.797Z,90915.63
2022-12-19T12:31:45.495Z,91035.00
2022-12-19T12:31:56.859Z,91093.34
2022-12-19T12:35:38.191Z,91168.00
2022-12-19T12:35:38.192Z,91254.81
2022-12-19T12:38:21.422Z,91326.09
2022-12-19T12:41:20.451Z,91406.19
2022-12-19T12:43:51.484Z,91517.81
2022-12-19T12:46:24.392Z,91573.78
2022-12-19T12:49:02.529Z,91634.97
2022-12-19T12:51:28.924Z,91699.28
2022-12-19T12:54:01.550Z,91747.53
2022-12-19T12:56:27.901Z,91844.72
2022-12-19T12:58:55.281Z,91902.06
2022-12-19T13:01:36.120Z,91938.91
2022-12-19T13:04:07.622Z,91974.06
2022-12-19T13:06:41.697Z,92025.47
2022-12-19T13:09:08.043Z,92072.34
2022-12-19T13:11:55.400Z,92150.53
2022-12-19T13:14:34.014Z,92232.09
2022-12-19T13:17:21.291Z,92313.47
2022-12-19T13:19:57.727Z,92370.53
2022-12-19T13:22:30.322Z,92366.13
2022-12-19T13:24:57.466Z,92361.09
2022-12-19T13:27:24.596Z,92370.25
2022-12-19T13:30:00.264Z,92401.13
2022-12-19T13:32:27.809Z,92433.81
2022-12-19T13:35:11.330Z,92455.31
2022-12-19T13:39:54.296Z,92492.78
2022-12-19T13:41:22.555Z,92589.28
2022-12-19T13:43:49.691Z,92651.91
2022-12-19T13:46:42.467Z,92710.53
2022-12-19T13:49:17.371Z,92765.19
2022-12-19T13:51:48.704Z,92816.59
2022-12-19T13:54:45.963Z,92870.09
2022-12-19T13:57:42.012Z,92951.22
2022-12-19T14:00:17.134Z,93006.50
2022-12-19T14:02:51.746Z,93052.41
2022-12-19T14:05:34.008Z,93119.03
2022-12-19T14:08:17.808Z,93181.28
2022-12-19T14:11:41.066Z,93270.47
2022-12-19T14:14:01.967Z,93324.34
2022-12-19T14:16:40.189Z,93391.53
2022-12-19T14:19:22.402Z,93426.72
2022-12-19T14:22:03.940Z,93487.81
2022-12-19T14:24:34.646Z,93518.63
2022-12-19T14:28:24.714Z,93565.31
2022-12-19T14:30:28.719Z,93644.78
2022-12-19T14:33:44.839Z,93714.94
2022-12-19T14:36:08.364Z,93760.72
2022-12-19T14:39:21.314Z,93766.44
2022-12-19T14:41:38.199Z,93723.34
2022-12-19T14:52:08.634Z,93606.16
2022-12-19T14:54:08.510Z,93689.53
2022-12-19T14:54:15.600Z,93558.22
2022-12-19T14:54:50.379Z,93515.13
2022-12-19T14:56:12.225Z,93479.66
2022-12-19T14:58:53.010Z,93432.59
2022-12-19T15:01:23.395Z,93414.56
2022-12-19T15:04:48.236Z,93400.19
2022-12-19T15:07:06.621Z,93361.31
2022-12-19T15:10:59.577Z,93331.59
2022-12-19T15:13:47.108Z,93320.84
2022-12-19T15:15:50.704Z,93313.72
2022-12-19T15:18:33.318Z,93335.09
2022-12-19T15:21:02.098Z,93333.00
2022-12-19T15:23:28.787Z,93453.16
2022-12-19T15:26:05.237Z,93540.13
2022-12-19T15:28:58.641Z,93611.16
2022-12-19T15:31:32.110Z,93706.41
2022-12-19T15:36:45.159Z,93849.84
2022-12-19T15:39:11.523Z,93891.84
2022-12-19T15:41:37.882Z,93885.78
2022-12-19T15:44:15.777Z,93905.69
2022-12-19T15:46:48.322Z,93921.44
2022-12-19T15:49:19.112Z,93918.47
2022-12-19T15:51:46.042Z,93948.97
2022-12-19T15:54:47.120Z,93961.66
2022-12-19T15:56:58.846Z,93936.34
2022-12-19T15:59:34.724Z,93901.44
2022-12-19T16:02:04.146Z,93884.19
2022-12-19T16:04:31.361Z,93870.59
2022-12-19T16:06:57.958Z,93855.09
2022-12-19T16:09:25.939Z,93804.53
2022-12-19T16:11:53.152Z,93756.59
2022-12-19T16:14:20.575Z,93701.59
2022-12-19T16:16:50.631Z,93708.31
2022-12-19T16:19:23.890Z,93681.13
2022-12-19T16:21:50.469Z,93632.47
2022-12-19T16:24:16.857Z,93575.03
2022-12-19T16:26:43.295Z,93574.97
2022-12-19T16:29:23.134Z,93582.94
2022-12-19T16:31:51.302Z,93569.78
2022-12-19T16:34:19.569Z,93618.34
2022-12-19T16:36:46.084Z,93555.53
2022-12-19T16:39:12.574Z,93567.75
2022-12-19T16:41:42.615Z,93603.13
2022-12-19T16:44:19.545Z,93659.53
2022-12-19T16:46:50.592Z,93734.78
2022-12-19T16:49:19.627Z,93793.44
2022-12-19T16:51:46.188Z,93835.69
2022-12-19T16:54:13.400Z,93904.59
2022-12-19T16:56:41.352Z,93961.34
2022-12-19T16:59:16.211Z,94016.78
2022-12-19T17:01:44.013Z,94056.94
2022-12-19T17:04:14.896Z,94176.25
2022-12-19T17:06:41.932Z,94323.25
2022-12-19T17:09:10.089Z,94432.13
2022-12-19T17:11:36.512Z,94523.16
2022-12-19T17:14:10.440Z,94631.25
2022-12-19T17:16:37.073Z,94717.56
2022-12-19T17:19:03.535Z,94778.91
2022-12-19T17:21:29.944Z,94796.13
2022-12-19T17:23:56.343Z,94818.81
2022-12-19T17:26:22.744Z,94895.59
2022-12-19T17:28:49.156Z,94959.56
2022-12-19T17:31:28.479Z,95006.03
2022-12-19T17:33:55.844Z,95069.72
2022-12-19T17:36:26.123Z,95099.25
2022-12-19T17:38:54.098Z,95142.59
2022-12-19T17:41:20.472Z,95215.88
2022-12-19T17:43:46.835Z,95293.84
2022-12-19T17:46:20.419Z,95313.09
2022-12-19T17:48:50.151Z,95301.63
2022-12-19T17:51:17.457Z,95277.84
2022-12-19T17:53:44.414Z,95226.78
2022-12-19T17:56:14.581Z,95194.25
2022-12-19T17:58:41.225Z,95170.97
2022-12-19T18:01:17.067Z,95172.88
2022-12-19T18:03:43.525Z,95210.34
2022-12-19T18:06:12.246Z,95202.00
2022-12-19T18:08:39.004Z,95205.38
2022-12-19T18:11:07.562Z,95200.56
2022-12-19T18:13:33.951Z,95225.59
2022-12-19T18:16:01.469Z,95260.03
2022-12-19T18:18:33.663Z,95283.56
2022-12-19T18:21:00.380Z,95287.78
2022-12-19T18:23:26.928Z,95273.41
2022-12-19T18:26:00.917Z,95292.56
2022-12-19T18:28:28.169Z,95291.88
2022-12-19T18:30:58.579Z,95287.09
2022-12-19T18:33:25.102Z,95292.81
2022-12-19T18:35:51.505Z,95295.28
2022-12-19T18:38:19.703Z,95301.03
2022-12-19T18:40:46.363Z,95261.72
2022-12-19T18:43:14.150Z,95297.66
2022-12-19T18:45:42.167Z,95325.22
2022-12-19T18:48:28.465Z,95335.88
2022-12-19T18:50:56.318Z,95306.41
2022-12-19T18:53:23.909Z,95319.50
2022-12-19T18:55:51.560Z,95346.63
2022-12-19T18:58:18.608Z,95352.63
2022-12-19T19:00:45.065Z,95341.66
2022-12-19T19:03:16.145Z,95310.53
2022-12-19T19:05:42.826Z,95338.56
2022-12-19T19:08:15.867Z,95363.22
2022-12-19T19:10:42.316Z,95367.72
2022-12-19T19:13:10.514Z,95367.22
2022-12-19T19:15:40.365Z,95435.69
2022-12-19T19:18:07.683Z,95464.69
2022-12-19T19:20:36.394Z,95487.94
2022-12-19T19:23:04.013Z,95512.06
2022-12-19T19:25:31.780Z,95494.41
2022-12-19T19:27:58.160Z,95480.09
2022-12-19T19:30:24.588Z,95500.59
2022-12-19T19:33:03.710Z,95518.00
2022-12-19T19:35:30.088Z,95496.22
2022-12-19T19:37:58.959Z,95481.66
2022-12-19T19:40:25.385Z,95536.41
2022-12-19T19:42:51.782Z,95546.81
2022-12-19T19:45:18.155Z,95568.19
2022-12-19T19:47:44.664Z,95570.66
2022-12-19T19:50:12.018Z,95563.78
2022-12-19T19:52:39.282Z,95568.06
2022-12-19T19:55:09.563Z,95529.75
2022-12-19T19:57:36.187Z,95556.44
2022-12-19T20:00:06.903Z,95542.19
2022-12-19T20:02:33.472Z,95547.53
2022-12-19T20:05:00.517Z,95560.59
2022-12-19T20:07:27.108Z,95561.09
2022-12-19T20:09:53.702Z,95606.75
2022-12-19T20:12:20.091Z,95658.53
2022-12-19T20:14:46.974Z,95668.66
2022-12-19T20:17:13.432Z,95648.69
2022-12-19T20:19:39.828Z,95645.66
2022-12-19T20:22:06.264Z,95651.56
2022-12-19T20:24:32.702Z,95664.13
2022-12-19T20:26:59.143Z,95662.91
2022-12-19T20:29:25.730Z,95625.09
2022-12-19T20:31:52.130Z,95614.31
2022-12-19T20:34:20.007Z,95591.47
2022-12-19T20:36:46.411Z,95596.09
2022-12-19T20:39:12.944Z,95594.19
2022-12-19T20:41:39.359Z,95632.09
2022-12-19T20:44:05.718Z,95641.41
2022-12-19T20:46:32.170Z,95653.31
2022-12-19T20:48:58.839Z,95653.31
2022-12-19T20:51:25.234Z,95678.50
2022-12-19T20:53:52.468Z,95662.75
2022-12-19T20:56:19.022Z,95707.81
2022-12-19T20:58:45.674Z,95718.47
2022-12-19T21:01:14.065Z,95718.75
2022-12-19T21:03:40.859Z,95706.84
2022-12-19T21:06:08.137Z,95743.41
2022-12-19T21:08:34.606Z,95739.03
2022-12-19T21:11:01.195Z,95727.66
2022-12-19T21:13:27.674Z,95729.44
2022-12-19T21:15:56.317Z,95739.16
2022-12-19T21:18:22.865Z,95732.44
2022-12-19T21:20:52.095Z,95739.56
2022-12-19T21:23:18.664Z,95752.44
2022-12-19T21:25:45.092Z,95766.66
2022-12-19T21:28:11.511Z,95767.75
2022-12-19T21:30:38.060Z,95785.69
2022-12-19T21:33:04.439Z,95840.09
2022-12-19T21:35:30.839Z,95894.59
2022-12-19T21:37:57.452Z,95897.91
2022-12-19T21:40:23.815Z,95895.97
2022-12-19T21:42:50.164Z,95891.88
2022-12-19T21:45:16.701Z,95898.72
2022-12-19T21:47:43.185Z,95924.09
2022-12-19T21:50:10.822Z,95911.06
2022-12-19T21:52:37.565Z,95906.66
2022-12-19T21:55:05.072Z,95915.72
2022-12-19T21:57:31.448Z,95916.94
2022-12-19T21:59:57.806Z,95925.44
2022-12-19T22:02:24.240Z,95899.41
2022-12-19T22:04:50.837Z,95883.13
2022-12-19T22:07:17.217Z,95916.53
2022-12-19T22:09:43.590Z,95905.88
2022-12-19T22:12:11.929Z,95925.97
2022-12-19T22:14:38.348Z,95909.94
2022-12-19T22:17:05.563Z,95879.28
2022-12-19T22:19:31.948Z,95859.28
2022-12-19T22:21:58.323Z,95813.81
2022-12-19T22:24:24.738Z,95809.81
2022-12-19T22:26:51.136Z,95768.88
2022-12-19T22:29:17.697Z,95745.19
2022-12-19T22:31:44.432Z,95772.44
2022-12-19T22:34:12.738Z,95751.34
2022-12-19T22:36:39.765Z,95764.50
2022-12-19T22:39:08.890Z,95778.47
2022-12-19T22:41:35.584Z,95802.53
2022-12-19T22:44:02.120Z,95777.34
2022-12-19T22:46:35.843Z,95732.47
2022-12-19T22:49:04.290Z,95663.19
2022-12-19T22:51:31.581Z,95621.28
2022-12-19T22:53:58.301Z,95592.53
2022-12-19T22:56:26.135Z,95595.44
2022-12-19T22:58:53.496Z,95600.19
2022-12-19T23:01:23.650Z,95582.31
2022-12-19T23:03:51.375Z,95559.69
2022-12-19T23:06:18.278Z,95533.69
2022-12-19T23:08:44.744Z,95518.06
2022-12-19T23:11:13.332Z,95510.56
2022-12-19T23:13:39.935Z,95508.47
2022-12-19T23:16:06.455Z,95550.66
2022-12-19T23:18:32.924Z,95552.00
2022-12-19T23:21:22.685Z,95571.19
2022-12-19T23:23:51.369Z,95570.66
2022-12-19T23:26:23.083Z,95545.88
2022-12-19T23:28:59.934Z,95554.78
2022-12-19T23:31:27.099Z,95559.03
2022-12-19T23:33:53.724Z,95550.50
2022-12-19T23:36:37.995Z,95570.41
2022-12-19T23:39:06.551Z,95558.06
2022-12-19T23:41:32.981Z,95546.03
2022-12-19T23:43:59.509Z,95528.78
2022-12-19T23:46:26.634Z,95513.72
2022-12-19T23:48:53.351Z,95450.75
2022-12-19T23:51:21.188Z,95463.94
2022-12-19T23:53:47.913Z,95435.25
2022-12-19T23:56:20.395Z,95380.94
2022-12-19T23:58:46.839Z,95285.94
